createdAt,value
2023-04-25T00:03:43.475Z,100382.88
2023-04-25T00:08:39.895Z,100405.84
2023-04-25T00:13:36.992Z,100396.06
2023-04-25T00:18:36.755Z,100394.19
2023-04-25T00:23:39.890Z,100393.97
2023-04-25T00:28:36.488Z,100424.13
2023-04-25T00:33:35.714Z,100410.34
2023-04-25T00:38:32.634Z,100420.50
2023-04-25T00:43:29.221Z,100441.44
2023-04-25T00:48:26.163Z,100424.09
2023-04-25T00:53:23.267Z,100427.31
2023-04-25T00:58:21.093Z,100444.09
2023-04-25T01:03:18.813Z,100444.09
2023-04-25T01:08:18.341Z,100445.13
2023-04-25T01:13:14.800Z,100441.00
2023-04-25T01:18:11.627Z,100451.50
2023-04-25T01:23:08.019Z,100442.47
2023-04-25T01:28:04.545Z,100456.38
2023-04-25T01:33:01.450Z,100446.25
2023-04-25T01:38:00.190Z,100450.91
2023-04-25T01:42:56.695Z,100466.00
2023-04-25T01:47:53.453Z,100440.94
2023-04-25T01:52:50.232Z,100453.44
2023-04-25T01:57:46.859Z,100477.22
2023-04-25T02:02:43.643Z,100476.38
2023-04-25T02:07:40.151Z,100481.88
2023-04-25T02:12:37.011Z,100468.78
2023-04-25T02:17:33.541Z,100490.44
2023-04-25T02:22:31.392Z,100477.34
2023-04-25T02:27:27.928Z,100493.38
2023-04-25T02:32:26.789Z,100495.84
2023-04-25T02:37:24.219Z,100491.38
2023-04-25T02:42:20.707Z,100480.13
2023-04-25T02:47:17.291Z,100492.44
2023-04-25T02:52:13.934Z,100489.66
2023-04-25T02:57:10.509Z,100499.34
2023-04-25T03:02:07.161Z,100503.69
2023-04-25T03:07:03.628Z,100506.09
2023-04-25T03:12:00.148Z,100498.28
2023-04-25T03:16:56.786Z,100498.13
2023-04-25T03:21:56.790Z,100505.59
2023-04-25T03:26:53.383Z,100506.28
2023-04-25T03:31:50.034Z,100498.63
2023-04-25T03:44:10.418Z,100538.00
2023-04-25T03:49:07.074Z,100527.38
2023-04-25T03:54:03.579Z,100538.81
2023-04-25T03:59:00.193Z,100546.34
2023-04-25T04:03:57.149Z,100544.50
2023-04-25T04:08:57.395Z,100551.66
2023-04-25T04:14:07.667Z,100552.88
2023-04-25T04:19:13.425Z,100539.53
2023-04-25T04:24:17.414Z,100563.19
2023-04-25T04:29:57.668Z,100576.13
2023-04-25T04:34:58.078Z,100582.38
2023-04-25T04:39:54.632Z,100582.97
2023-04-25T06:14:29.569Z,100666.66
2023-04-25T08:29:22.317Z,100757.19
2023-04-25T14:44:04.892Z,101045.84
2023-04-25T14:49:01.901Z,101054.28
2023-04-25T14:53:59.035Z,101039.25
2023-04-25T15:11:48.915Z,101085.56
2023-04-25T15:16:45.610Z,101096.31
2023-04-25T15:21:42.005Z,101099.28
2023-04-25T16:04:28.451Z,101105.25
2023-04-25T18:05:24.387Z,101208.16
2023-04-25T18:10:21.183Z,101208.53
2023-04-25T18:15:18.218Z,101210.47
2023-04-25T18:20:15.769Z,101213.44
2023-04-25T18:25:13.776Z,101223.41
2023-04-25T18:30:11.393Z,101220.84
2023-04-25T18:35:11.308Z,101216.88
2023-04-25T19:50:54.951Z,101291.38
2023-04-25T19:55:56.805Z,101285.69
2023-04-25T20:00:55.924Z,101281.69
2023-04-25T20:05:58.266Z,101296.78
2023-04-25T20:10:57.686Z,101306.00
2023-04-25T20:15:54.231Z,101304.28
2023-04-25T20:20:51.713Z,101317.25
2023-04-25T20:25:48.495Z,101320.25
2023-04-25T20:30:46.241Z,101322.38
2023-04-25T20:35:42.756Z,101295.03
2023-04-25T20:40:39.214Z,101315.91
2023-04-25T20:45:37.455Z,101314.25
2023-04-25T20:50:34.200Z,101316.97
2023-04-25T20:55:30.857Z,101317.88
2023-04-25T21:00:29.118Z,101313.91
2023-04-25T21:05:25.670Z,101320.81
2023-04-25T21:10:22.219Z,101308.88
2023-04-25T21:15:21.167Z,101322.00
2023-04-25T21:20:21.719Z,101316.84
2023-04-25T21:25:20.574Z,101333.03
2023-04-25T21:30:23.379Z,101318.59
2023-04-25T21:35:21.774Z,101345.63
2023-04-25T21:40:18.288Z,101343.34
2023-04-25T21:45:14.771Z,101343.69
2023-04-25T21:50:11.342Z,101346.78
2023-04-25T21:55:09.474Z,101315.88
2023-04-25T22:00:19.987Z,101332.53
2023-04-25T22:05:23.200Z,101356.22
2023-04-25T22:10:21.426Z,101343.88
2023-04-25T22:15:19.402Z,101329.84
2023-04-25T22:20:16.036Z,101326.06
2023-04-25T22:25:12.582Z,101331.41
2023-04-25T22:30:10.929Z,101339.88
2023-04-25T22:35:07.979Z,101359.31
2023-04-25T22:40:10.301Z,101359.13
2023-04-25T22:45:08.195Z,101327.59
2023-04-25T22:50:07.740Z,101369.22
2023-04-25T22:55:04.707Z,101357.41
2023-04-25T23:00:01.624Z,101367.75
2023-04-25T23:05:00.022Z,101362.69
2023-04-25T23:09:56.722Z,101378.31
2023-04-25T23:14:53.615Z,101361.50
2023-04-25T23:19:50.313Z,101368.34
2023-04-25T23:24:49.206Z,101371.78
2023-04-25T23:29:54.471Z,101375.06
2023-04-25T23:34:51.123Z,101360.44
2023-04-25T23:39:50.459Z,101391.41
2023-04-25T23:44:47.004Z,101386.88
2023-04-25T23:49:43.868Z,101366.88
2023-04-25T23:54:40.427Z,101399.53
2023-04-25T23:59:36.912Z,101361.47
